Time;durP1;ratioP1;P1;durP2;ratioP2;P2;SDS_P1;SDS_P2;PMS_P1;PMS_P2;Temp;Humidity;BMP_temperature;BMP_pressure;BME280_temperature;BME280_humidity;BME280_pressure;Samples;Min_cycle;Max_cycle;Signal;HPM_P1;HPM_P2
2023/11/07 00:01:29;;;;;;;2.58;0.88;;;8.30;99.00;;;;;;6068054;23;20034;-84
2023/11/07 00:03:56;;;;;;;2.72;0.70;;;8.40;98.90;;;;;;6020447;23;20027;-85
2023/11/07 00:06:24;;;;;;;3.85;0.57;;;8.50;98.80;;;;;;6068343;23;20437;-85
2023/11/07 00:08:51;;;;;;;3.50;0.80;;;8.50;98.70;;;;;;6091989;23;20054;-85
2023/11/07 00:11:21;;;;;;;2.17;0.50;;;8.50;98.70;;;;;;6043879;23;20038;-84
2023/11/07 00:13:50;;;;;;;3.30;0.68;;;8.40;98.70;;;;;;6092024;23;20082;-85
2023/11/07 00:16:17;;;;;;;3.28;0.60;;;8.40;98.80;;;;;;6044165;23;20019;-85
2023/11/07 00:18:46;;;;;;;2.80;0.60;;;8.40;98.80;;;;;;6067568;23;20015;-85
2023/11/07 00:21:14;;;;;;;2.63;0.55;;;8.40;98.90;;;;;;6043527;23;20468;-85
2023/11/07 00:23:41;;;;;;;2.67;0.70;;;8.30;98.90;;;;;;6044478;23;20089;-85
2023/11/07 00:26:08;;;;;;;1.92;0.63;;;8.30;99.00;;;;;;6043870;23;20450;-85
2023/11/07 00:28:39;;;;;;;3.65;0.65;;;8.30;99.00;;;;;;6043739;23;20026;-85
2023/11/07 00:31:06;;;;;;;1.42;0.50;;;8.30;99.00;;;;;;6044063;23;20022;-85
2023/11/07 00:33:33;;;;;;;5.00;0.77;;;8.20;99.00;;;;;;6067819;23;20073;-85
2023/11/07 00:36:01;;;;;;;2.30;0.43;;;8.20;99.00;;;;;;6043703;23;20027;-85
2023/11/07 00:38:29;;;;;;;2.20;0.80;;;8.20;99.10;;;;;;6043393;23;20019;-84
2023/11/07 00:40:56;;;;;;;2.95;0.85;;;8.20;99.10;;;;;;6067183;23;20354;-85
2023/11/07 00:43:23;;;;;;;1.35;0.50;;;8.30;99.10;;;;;;6043858;23;20030;-85
2023/11/07 00:45:50;;;;;;;3.63;0.68;;;8.40;99.00;;;;;;6044091;23;20030;-85
2023/11/07 00:48:17;;;;;;;1.90;0.43;;;8.50;98.90;;;;;;6043894;23;20045;-85
2023/11/07 00:50:44;;;;;;;3.28;0.60;;;8.50;98.80;;;;;;6043894;23;20078;-85
2023/11/07 00:53:12;;;;;;;1.38;0.50;;;8.60;98.80;;;;;;6044064;23;20041;-85
2023/11/07 00:55:39;;;;;;;3.08;0.65;;;8.50;98.80;;;;;;6091761;23;20018;-85
2023/11/07 00:58:07;;;;;;;1.70;0.50;;;8.50;98.80;;;;;;6067520;23;20050;-85
2023/11/07 01:00:34;;;;;;;1.67;0.47;;;8.40;98.80;;;;;;6091258;23;20019;-85
2023/11/07 01:03:02;;;;;;;2.10;0.75;;;8.40;98.90;;;;;;6043745;23;20346;-85
2023/11/07 01:05:29;;;;;;;1.30;0.47;;;8.40;99.00;;;;;;6091399;23;20023;-85
2023/11/07 01:07:57;;;;;;;2.08;0.70;;;8.40;99.00;;;;;;6067354;23;20031;-85
2023/11/07 01:10:24;;;;;;;1.60;0.40;;;8.40;99.30;;;;;;6067842;23;20513;-85
2023/11/07 01:12:52;;;;;;;2.28;0.60;;;8.40;99.00;;;;;;6086129;23;20030;-85
2023/11/07 01:15:20;;;;;;;3.03;0.57;;;8.50;98.90;;;;;;6115514;23;20027;-85
2023/11/07 01:17:47;;;;;;;3.40;0.60;;;8.60;98.90;;;;;;6091809;23;20054;-85
2023/11/07 01:20:16;;;;;;;2.35;0.50;;;8.60;98.80;;;;;;6066653;23;20022;-85
2023/11/07 01:22:48;;;;;;;1.65;0.40;;;8.60;98.80;;;;;;6067685;23;20027;-85
2023/11/07 01:25:15;;;;;;;1.25;0.40;;;8.50;98.80;;;;;;6066217;23;20022;-85
2023/11/07 01:27:43;;;;;;;1.73;0.40;;;8.50;98.80;;;;;;6043459;23;20105;-85
2023/11/07 01:30:10;;;;;;;2.35;0.70;;;8.40;98.90;;;;;;6067413;23;20053;-85
2023/11/07 01:32:38;;;;;;;1.33;0.40;;;8.40;99.00;;;;;;6068375;23;20026;-84
2023/11/07 01:35:07;;;;;;;1.83;0.35;;;8.30;99.00;;;;;;6045409;23;20046;-85
2023/11/07 01:37:34;;;;;;;1.77;0.57;;;8.20;99.10;;;;;;6068472;23;20452;-85
2023/11/07 01:40:04;;;;;;;2.38;0.77;;;8.20;99.10;;;;;;6069071;23;20027;-85
2023/11/07 01:42:40;;;;;;;2.70;0.43;;;8.20;99.20;;;;;;6092779;23;20438;-85
2023/11/07 01:45:10;;;;;;;1.40;0.40;;;8.10;99.20;;;;;;6067150;23;20030;-84
2023/11/07 01:47:39;;;;;;;1.52;0.32;;;8.10;99.20;;;;;;6069582;23;20363;-85
2023/11/07 01:50:12;;;;;;;4.80;0.95;;;8.10;99.30;;;;;;6093444;23;20024;-85
2023/11/07 01:52:40;;;;;;;1.33;0.20;;;8.10;99.30;;;;;;6046391;23;20033;-85
2023/11/07 01:55:12;;;;;;;1.63;0.40;;;8.10;99.30;;;;;;6128051;23;20019;-85
2023/11/07 01:57:51;;;;;;;1.45;0.40;;;8.10;99.30;;;;;;6070189;23;20047;-85
2023/11/07 02:00:20;;;;;;;0.80;0.30;;;8.10;99.30;;;;;;6069094;23;20026;-85
2023/11/07 02:02:47;;;;;;;1.38;0.30;;;8.10;99.30;;;;;;6076522;23;20110;-85
2023/11/07 02:05:15;;;;;;;1.05;0.30;;;8.10;99.50;;;;;;6073151;23;20029;-85
2023/11/07 02:07:43;;;;;;;1.58;0.57;;;8.10;99.20;;;;;;6097776;23;20023;-85
2023/11/07 02:10:11;;;;;;;2.10;0.60;;;8.10;99.20;;;;;;6093885;23;20106;-85
2023/11/07 02:12:39;;;;;;;1.50;0.43;;;8.10;99.30;;;;;;6092997;23;20070;-85
2023/11/07 02:15:23;;;;;;;1.13;0.30;;;8.10;99.20;;;;;;6092795;23;20446;-85
2023/11/07 02:17:50;;;;;;;2.08;0.35;;;8.10;99.10;;;;;;6045040;23;20018;-85
2023/11/07 02:20:17;;;;;;;0.85;0.30;;;8.10;99.20;;;;;;6068674;23;20023;-85
2023/11/07 02:22:55;;;;;;;2.08;0.30;;;8.10;99.20;;;;;;6045302;23;20026;-85
2023/11/07 02:25:22;;;;;;;1.77;0.50;;;8.00;99.20;;;;;;6045176;23;20023;-85
2023/11/07 02:27:49;;;;;;;0.45;0.20;;;8.00;99.30;;;;;;6093121;23;20019;-84
2023/11/07 02:30:16;;;;;;;1.33;0.40;;;8.00;99.30;;;;;;6021568;23;20361;-85
2023/11/07 02:32:44;;;;;;;1.45;0.40;;;8.00;99.30;;;;;;6068549;23;20026;-85
2023/11/07 02:35:12;;;;;;;1.40;0.30;;;8.00;99.30;;;;;;6068745;23;20112;-85
2023/11/07 02:37:40;;;;;;;1.02;0.40;;;8.00;99.30;;;;;;6092537;23;20019;-86
2023/11/07 02:40:11;;;;;;;2.38;0.60;;;8.10;99.30;;;;;;6068567;23;20090;-85
2023/11/07 02:42:38;;;;;;;0.85;0.40;;;8.00;99.30;;;;;;6067500;23;20019;-85
2023/11/07 02:45:06;;;;;;;1.25;0.40;;;8.10;99.30;;;;;;6068723;23;20025;-85
2023/11/07 02:47:33;;;;;;;1.10;0.40;;;8.00;99.30;;;;;;6068912;23;20027;-85
2023/11/07 02:50:10;;;;;;;1.23;0.55;;;8.10;99.30;;;;;;6066971;23;20129;-85
2023/11/07 02:52:38;;;;;;;2.33;0.50;;;8.00;99.30;;;;;;6045047;23;20031;-85
2023/11/07 02:55:08;;;;;;;2.08;0.70;;;8.00;99.30;;;;;;6092437;23;20390;-85
2023/11/07 02:57:35;;;;;;;0.90;0.22;;;7.90;99.40;;;;;;6068132;23;20022;-85
2023/11/07 03:00:03;;;;;;;1.35;0.32;;;7.90;99.40;;;;;;6068568;23;20026;-85
2023/11/07 03:02:35;;;;;;;2.97;0.47;;;7.90;99.40;;;;;;6092303;23;20097;-85
2023/11/07 03:05:04;;;;;;;2.58;1.05;;;7.90;99.40;;;;;;6068511;23;20022;-85
2023/11/07 03:07:32;;;;;;;1.75;0.40;;;7.90;99.40;;;;;;6092456;23;20070;-85
2023/11/07 03:10:01;;;;;;;3.05;0.40;;;8.00;99.40;;;;;;6068795;23;20014;-85
2023/11/07 03:12:28;;;;;;;2.10;0.50;;;8.00;99.40;;;;;;6097006;23;20033;-85
2023/11/07 03:14:56;;;;;;;1.25;0.50;;;8.00;99.40;;;;;;6097506;23;20402;-85
2023/11/07 03:17:24;;;;;;;1.45;0.55;;;8.00;99.40;;;;;;6121918;23;20023;-85
2023/11/07 03:19:53;;;;;;;2.08;0.50;;;8.00;99.40;;;;;;6073379;23;20018;-85
2023/11/07 03:22:26;;;;;;;2.67;0.47;;;8.00;99.40;;;;;;6073083;23;20018;-86
2023/11/07 03:24:53;;;;;;;;;;;8.00;99.40;;;;;;6098324;23;20018;-85
2023/11/07 03:27:21;;;;;;;1.27;0.43;;;8.00;99.40;;;;;;6098008;23;19965;-86
2023/11/07 03:29:48;;;;;;;1.00;0.40;;;7.90;99.40;;;;;;6097542;23;20077;-86
2023/11/07 03:32:16;;;;;;;1.05;0.20;;;8.00;99.40;;;;;;6097713;23;20030;-86
2023/11/07 03:34:43;;;;;;;2.25;0.40;;;8.00;99.40;;;;;;6121833;23;20101;-86
2023/11/07 03:37:11;;;;;;;1.17;0.30;;;8.00;99.40;;;;;;6073746;23;20043;-86
2023/11/07 03:39:38;;;;;;;3.25;0.47;;;8.00;99.70;;;;;;6073161;23;20030;-86
2023/11/07 03:42:06;;;;;;;2.88;0.70;;;8.00;99.50;;;;;;6097196;23;20445;-86
2023/11/07 03:44:34;;;;;;;2.10;0.40;;;8.00;99.50;;;;;;6096708;23;20026;-86
2023/11/07 03:47:05;;;;;;;2.85;0.43;;;8.10;99.40;;;;;;6072820;23;20019;-86
2023/11/07 03:49:33;;;;;;;1.42;0.47;;;8.10;99.40;;;;;;6072833;23;20081;-85
2023/11/07 03:52:00;;;;;;;2.42;0.50;;;8.10;99.40;;;;;;6072838;23;20050;-85
2023/11/07 03:54:27;;;;;;;2.13;0.40;;;8.20;99.30;;;;;;6096995;23;20030;-86
2023/11/07 03:56:54;;;;;;;1.55;0.30;;;8.20;99.30;;;;;;6097517;23;20822;-85
2023/11/07 03:59:22;;;;;;;3.22;1.15;;;8.30;99.30;;;;;;6049292;23;20014;-86
2023/11/07 04:01:49;;;;;;;2.45;0.40;;;8.30;99.30;;;;;;6096982;23;20026;-86
2023/11/07 04:04:16;;;;;;;1.70;0.30;;;8.40;99.30;;;;;;6097400;23;20018;-85
2023/11/07 04:06:43;;;;;;;1.27;0.30;;;8.40;99.20;;;;;;6097439;23;20029;-85
2023/11/07 04:09:10;;;;;;;2.05;0.40;;;8.50;99.20;;;;;;6072925;23;20082;-85
2023/11/07 04:11:37;;;;;;;2.03;0.40;;;8.50;99.20;;;;;;6072515;23;20101;-85
2023/11/07 04:14:05;;;;;;;1.70;0.35;;;8.40;99.10;;;;;;6072702;23;20404;-86
2023/11/07 04:16:32;;;;;;;1.52;0.40;;;8.40;99.20;;;;;;6096737;23;20030;-85
2023/11/07 04:18:59;;;;;;;3.08;0.57;;;8.40;99.20;;;;;;6072831;23;20029;-85
2023/11/07 04:21:28;;;;;;;4.28;0.82;;;8.40;99.20;;;;;;6072994;23;20028;-86
2023/11/07 04:23:55;;;;;;;1.80;0.50;;;8.50;99.20;;;;;;6096675;23;20329;-86
2023/11/07 04:26:22;;;;;;;1.70;0.45;;;8.50;99.20;;;;;;6097374;23;20018;-86
2023/11/07 04:28:49;;;;;;;2.13;0.40;;;8.50;99.20;;;;;;6096957;23;20390;-85
2023/11/07 04:31:16;;;;;;;2.85;0.50;;;8.50;99.20;;;;;;6096551;23;20026;-86
2023/11/07 04:33:43;;;;;;;4.82;0.47;;;8.50;99.20;;;;;;6097160;23;20045;-85
2023/11/07 04:36:12;;;;;;;2.60;0.60;;;8.50;99.20;;;;;;6072930;23;20023;-86
2023/11/07 04:38:41;;;;;;;2.35;0.73;;;8.50;99.20;;;;;;6096587;23;20018;-85
2023/11/07 04:41:09;;;;;;;5.70;0.70;;;8.50;99.30;;;;;;6072025;23;20018;-85
2023/11/07 04:43:36;;;;;;;5.00;1.17;;;8.50;99.30;;;;;;6096664;23;20033;-85
2023/11/07 04:46:03;;;;;;;2.58;0.70;;;8.50;99.30;;;;;;6072503;23;20053;-85
2023/11/07 04:48:33;;;;;;;1.83;0.50;;;8.50;99.30;;;;;;6121039;23;20042;-86
2023/11/07 04:51:02;;;;;;;1.88;0.90;;;8.50;99.30;;;;;;6096679;23;20023;-86
2023/11/07 04:53:29;;;;;;;3.03;0.88;;;8.50;99.30;;;;;;6072513;23;20516;-85
2023/11/07 04:55:56;;;;;;;3.40;1.00;;;8.50;99.40;;;;;;6072500;23;20516;-85
2023/11/07 04:58:25;;;;;;;5.38;0.95;;;8.60;99.30;;;;;;6096841;23;20029;-86
2023/11/07 05:00:55;;;;;;;4.00;1.17;;;8.60;99.30;;;;;;6121066;23;20015;-85
2023/11/07 05:03:25;;;;;;;1.90;0.75;;;8.60;99.20;;;;;;6120687;23;20023;-85
2023/11/07 05:06:05;;;;;;;5.93;1.77;;;8.70;99.20;;;;;;6072167;23;20046;-86
2023/11/07 05:08:32;;;;;;;3.78;1.60;;;8.70;99.20;;;;;;6072058;23;20030;-85
2023/11/07 05:10:59;;;;;;;4.38;1.25;;;8.70;99.40;;;;;;6096372;23;20449;-85
2023/11/07 05:13:27;;;;;;;2.88;0.82;;;8.70;99.10;;;;;;6072294;23;20026;-85
2023/11/07 05:15:54;;;;;;;2.65;1.00;;;8.70;99.10;;;;;;6071658;23;20026;-83
2023/11/07 05:18:21;;;;;;;3.08;1.13;;;8.70;99.10;;;;;;6095680;23;20441;-82
2023/11/07 05:20:50;;;;;;;3.72;1.98;;;8.70;99.10;;;;;;6071295;23;20019;-83
2023/11/07 05:23:19;;;;;;;3.13;1.00;;;8.70;99.10;;;;;;6095209;23;20021;-83
2023/11/07 05:25:46;;;;;;;4.97;1.63;;;8.70;99.20;;;;;;6094819;23;20018;-83
2023/11/07 05:28:13;;;;;;;3.97;1.13;;;8.70;99.20;;;;;;6095458;23;20098;-83
2023/11/07 05:30:40;;;;;;;5.07;1.40;;;8.70;99.20;;;;;;6095672;23;20049;-83
2023/11/07 05:33:07;;;;;;;5.03;2.10;;;8.80;99.20;;;;;;6095558;23;20031;-83
2023/11/07 05:35:34;;;;;;;5.45;2.42;;;8.80;99.20;;;;;;6071377;23;20061;-83
2023/11/07 05:38:02;;;;;;;5.95;2.03;;;8.90;99.20;;;;;;6094799;23;20026;-83
2023/11/07 05:40:29;;;;;;;5.65;2.08;;;8.90;99.10;;;;;;6071705;23;20015;-82
2023/11/07 05:42:56;;;;;;;6.28;2.53;;;9.00;99.10;;;;;;6095228;23;20022;-83
2023/11/07 05:45:25;;;;;;;5.57;2.05;;;9.00;99.10;;;;;;6095549;23;20026;-83
2023/11/07 05:47:52;;;;;;;4.88;2.05;;;9.00;99.10;;;;;;6070792;23;20031;-83
2023/11/07 05:50:25;;;;;;;5.97;2.80;;;9.00;99.00;;;;;;6095753;23;20028;-83
2023/11/07 05:52:52;;;;;;;8.43;3.10;;;9.00;99.00;;;;;;6094251;23;20031;-83
2023/11/07 05:55:21;;;;;;;6.88;2.45;;;9.00;99.00;;;;;;6119601;23;20054;-83
2023/11/07 05:57:48;;;;;;;5.85;2.42;;;9.10;99.00;;;;;;6095419;23;20022;-83
2023/11/07 06:00:15;;;;;;;5.65;2.08;;;9.00;99.00;;;;;;6057048;23;20025;-82
2023/11/07 06:02:42;;;;;;;4.72;1.85;;;9.00;99.00;;;;;;6136967;23;20054;-83
2023/11/07 06:05:13;;;;;;;3.10;1.45;;;9.00;99.10;;;;;;6069046;23;20106;-82
2023/11/07 06:07:40;;;;;;;6.00;2.85;;;9.00;99.10;;;;;;6106604;23;20047;-83
2023/11/07 06:10:07;;;;;;;4.80;1.95;;;9.00;99.10;;;;;;6072826;23;20022;-83
2023/11/07 06:12:35;;;;;;;5.95;2.40;;;9.00;99.10;;;;;;6072007;23;20056;-83
2023/11/07 06:15:02;;;;;;;4.45;1.85;;;9.00;99.10;;;;;;6096117;23;20026;-83
2023/11/07 06:17:29;;;;;;;4.18;1.63;;;9.00;99.10;;;;;;6096453;23;20081;-82
2023/11/07 06:19:56;;;;;;;4.43;1.45;;;9.00;99.10;;;;;;6097676;23;20056;-82
2023/11/07 06:22:26;;;;;;;3.97;1.60;;;9.00;99.10;;;;;;6073541;23;20018;-83
2023/11/07 06:24:53;;;;;;;2.58;1.08;;;9.00;99.10;;;;;;6097328;23;20019;-83
2023/11/07 06:27:20;;;;;;;3.20;1.40;;;9.00;99.10;;;;;;6097274;23;20085;-83
2023/11/07 06:29:47;;;;;;;4.43;1.90;;;9.00;99.10;;;;;;6072940;23;20049;-83
2023/11/07 06:32:14;;;;;;;4.72;1.90;;;9.00;99.10;;;;;;6096785;23;20022;-83
2023/11/07 06:34:42;;;;;;;4.78;1.73;;;9.00;99.10;;;;;;6097263;23;20070;-83
2023/11/07 06:37:12;;;;;;;5.72;2.00;;;9.10;99.10;;;;;;6121050;23;20022;-83
2023/11/07 06:39:39;;;;;;;3.40;1.20;;;9.00;99.10;;;;;;6072813;23;20070;-83
2023/11/07 06:42:07;;;;;;;3.53;1.17;;;9.10;99.10;;;;;;6096775;23;20018;-83
2023/11/07 06:44:35;;;;;;;3.70;1.08;;;9.00;99.10;;;;;;6072871;23;20357;-83
2023/11/07 06:47:03;;;;;;;3.40;1.38;;;9.00;99.10;;;;;;6120960;23;20030;-83
2023/11/07 06:49:31;;;;;;;4.32;1.25;;;9.10;99.10;;;;;;6072594;23;20023;-83
2023/11/07 06:51:58;;;;;;;3.40;1.40;;;9.10;99.10;;;;;;6095998;23;20048;-83
2023/11/07 06:54:26;;;;;;;2.95;0.90;;;9.10;99.10;;;;;;6072658;23;20053;-83
2023/11/07 06:56:53;;;;;;;1.33;0.88;;;9.10;99.10;;;;;;6096170;23;20046;-83
2023/11/07 06:59:20;;;;;;;2.83;1.23;;;9.10;99.10;;;;;;6096643;23;20056;-82
2023/11/07 07:01:47;;;;;;;3.13;1.05;;;9.10;99.10;;;;;;6072740;23;20019;-83
2023/11/07 07:04:14;;;;;;;2.75;0.95;;;9.10;99.10;;;;;;6072862;23;20345;-83
2023/11/07 07:06:41;;;;;;;1.92;0.80;;;9.10;99.10;;;;;;6096422;23;20022;-82
2023/11/07 07:09:08;;;;;;;2.88;0.82;;;9.10;99.10;;;;;;6096095;23;20081;-83
2023/11/07 07:11:38;;;;;;;2.10;0.90;;;9.10;99.20;;;;;;6072922;23;20385;-83
2023/11/07 07:14:08;;;;;;;2.13;0.90;;;9.10;99.20;;;;;;6097057;23;20022;-83
2023/11/07 07:16:37;;;;;;;2.72;0.90;;;9.10;99.20;;;;;;6072292;23;20069;-83
2023/11/07 07:19:07;;;;;;;2.17;1.02;;;9.10;99.20;;;;;;6096604;23;20033;-83
2023/11/07 07:21:34;;;;;;;2.33;1.00;;;9.10;99.40;;;;;;6071849;23;20018;-83
2023/11/07 07:24:15;;;;;;;2.05;0.90;;;9.10;99.10;;;;;;6096260;23;20022;-82
2023/11/07 07:26:44;;;;;;;3.15;1.20;;;9.20;99.10;;;;;;6069970;23;20109;-83
2023/11/07 07:29:15;;;;;;;2.42;1.20;;;9.20;99.10;;;;;;6072493;23;20053;-83
2023/11/07 07:31:43;;;;;;;3.45;1.40;;;9.20;99.10;;;;;;6119375;23;20022;-83
2023/11/07 07:34:10;;;;;;;3.42;1.20;;;9.20;99.10;;;;;;6072699;23;20018;-83
2023/11/07 07:36:43;;;;;;;3.83;1.52;;;9.20;99.10;;;;;;6072165;23;20049;-83
2023/11/07 07:39:27;;;;;;;2.50;1.00;;;9.20;99.10;;;;;;6072087;23;20493;-82
2023/11/07 07:41:56;;;;;;;4.00;1.83;;;9.20;99.10;;;;;;6069016;23;20044;-83
2023/11/07 07:44:32;;;;;;;4.97;2.75;;;9.20;99.00;;;;;;6072678;23;20018;-83
2023/11/07 07:47:00;;;;;;;5.20;1.77;;;9.20;99.00;;;;;;6095714;23;20038;-83
2023/11/07 07:49:30;;;;;;;4.18;1.75;;;9.20;99.00;;;;;;6072164;23;20022;-83
2023/11/07 07:51:59;;;;;;;3.40;1.70;;;9.20;99.00;;;;;;6096017;23;20026;-83
2023/11/07 07:54:28;;;;;;;4.57;1.67;;;9.10;99.00;;;;;;6071947;23;20385;-83
2023/11/07 07:57:17;;;;;;;2.50;1.05;;;9.10;99.10;;;;;;6072371;23;20078;-83
2023/11/07 07:59:45;;;;;;;4.72;1.52;;;9.10;99.10;;;;;;6072370;23;20022;-83
2023/11/07 08:02:13;;;;;;;5.25;1.50;;;9.10;99.10;;;;;;6072795;23;20049;-83
2023/11/07 08:04:40;;;;;;;4.10;1.60;;;9.20;99.10;;;;;;6096125;23;20029;-83
2023/11/07 08:07:07;;;;;;;2.67;1.10;;;9.30;99.10;;;;;;6072061;23;20022;-83
2023/11/07 08:09:35;;;;;;;3.38;1.40;;;9.40;99.00;;;;;;6072148;23;20349;-83
2023/11/07 08:12:08;;;;;;;2.92;1.63;;;9.40;98.90;;;;;;6072368;23;20030;-83
2023/11/07 08:14:35;;;;;;;3.75;1.60;;;9.50;98.90;;;;;;6096007;23;20064;-83
2023/11/07 08:17:03;;;;;;;3.10;1.48;;;9.50;98.80;;;;;;6072050;23;20022;-83
2023/11/07 08:19:30;;;;;;;3.22;1.40;;;9.60;98.70;;;;;;6096269;23;20441;-83
2023/11/07 08:21:57;;;;;;;4.30;1.60;;;9.60;98.70;;;;;;6072225;23;20022;-82
2023/11/07 08:24:26;;;;;;;4.10;1.90;;;9.70;98.70;;;;;;6072011;23;20352;-82
2023/11/07 08:26:53;;;;;;;5.82;2.63;;;9.70;98.70;;;;;;6071757;23;20049;-83
2023/11/07 08:29:20;;;;;;;6.95;2.47;;;9.70;98.50;;;;;;6095425;23;20026;-83
2023/11/07 08:31:48;;;;;;;4.60;2.05;;;9.70;98.50;;;;;;6071254;23;20022;-83
2023/11/07 08:34:15;;;;;;;3.88;2.38;;;9.80;98.50;;;;;;6071560;23;20030;-83
2023/11/07 08:36:43;;;;;;;8.07;3.38;;;9.80;98.50;;;;;;6120355;23;20030;-82
2023/11/07 08:39:30;;;;;;;5.70;2.97;;;9.80;98.40;;;;;;6075161;23;20437;-82
2023/11/07 08:41:57;;;;;;;5.93;2.83;;;9.80;98.30;;;;;;6094905;23;20018;-83
2023/11/07 08:44:24;;;;;;;3.65;1.88;;;9.80;98.30;;;;;;6095000;23;20069;-83
2023/11/07 08:46:51;;;;;;;5.63;2.60;;;9.80;98.30;;;;;;6096159;23;20014;-82
2023/11/07 08:49:21;;;;;;;6.30;2.92;;;9.90;98.30;;;;;;6095141;23;20022;-83
2023/11/07 08:51:51;;;;;;;5.97;3.10;;;9.90;98.20;;;;;;6096097;23;20441;-83
2023/11/07 08:54:19;;;;;;;6.30;2.75;;;9.90;98.20;;;;;;6095267;23;20516;-83
2023/11/07 08:56:49;;;;;;;5.72;2.85;;;10.00;98.40;;;;;;6096005;23;20562;-83
2023/11/07 08:59:17;;;;;;;6.13;2.85;;;10.00;98.20;;;;;;6071229;23;20102;-83
2023/11/07 09:01:49;;;;;;;4.13;2.05;;;10.00;98.10;;;;;;6071947;23;20044;-83
2023/11/07 09:04:17;;;;;;;5.82;1.92;;;10.10;98.10;;;;;;6095257;23;20022;-83
2023/11/07 09:06:47;;;;;;;3.97;1.80;;;10.10;98.00;;;;;;6094653;23;20018;-83
2023/11/07 09:09:15;;;;;;;3.95;1.60;;;10.20;98.00;;;;;;6095328;23;20018;-82
2023/11/07 09:11:43;;;;;;;3.50;1.70;;;10.20;97.90;;;;;;6071226;23;20449;-83
2023/11/07 09:14:11;;;;;;;3.15;1.30;;;10.30;97.90;;;;;;6095578;23;20053;-83
2023/11/07 09:16:39;;;;;;;4.38;1.52;;;10.30;97.90;;;;;;6071114;23;20026;-83
2023/11/07 09:19:06;;;;;;;4.22;2.00;;;10.40;97.80;;;;;;6048027;23;20049;-83
2023/11/07 09:21:33;;;;;;;2.70;1.60;;;10.40;97.70;;;;;;6071644;23;20019;-82
2023/11/07 09:24:00;;;;;;;4.10;2.00;;;10.30;97.60;;;;;;6095214;23;20077;-84
2023/11/07 09:26:30;;;;;;;2.28;1.00;;;10.30;97.70;;;;;;6072551;23;20517;-87
2023/11/07 09:28:59;;;;;;;2.55;1.02;;;10.30;97.70;;;;;;6096313;23;20048;-86
2023/11/07 09:31:28;;;;;;;2.97;1.15;;;10.40;97.70;;;;;;6072009;23;20097;-85
2023/11/07 09:33:55;;;;;;;3.45;1.48;;;10.40;97.70;;;;;;6096174;23;20102;-86
2023/11/07 09:36:23;;;;;;;5.32;1.08;;;10.40;97.70;;;;;;6072399;23;20045;-85
2023/11/07 09:38:56;;;;;;;4.18;1.92;;;10.50;97.60;;;;;;6094634;23;20106;-84
2023/11/07 09:41:23;;;;;;;3.40;1.58;;;10.50;97.40;;;;;;6047827;23;20018;-85
2023/11/07 09:43:51;;;;;;;5.00;1.50;;;10.50;97.40;;;;;;6071891;23;20042;-86
2023/11/07 09:46:22;;;;;;;3.88;1.67;;;10.50;97.30;;;;;;6071448;23;20349;-83
2023/11/07 09:48:53;;;;;;;4.68;1.73;;;10.50;97.20;;;;;;6119136;23;20070;-85
2023/11/07 09:51:21;;;;;;;3.85;1.73;;;10.50;97.30;;;;;;6096066;23;20479;-84
2023/11/07 09:53:53;;;;;;;4.13;1.73;;;10.50;97.20;;;;;;6097019;23;20026;-83
2023/11/07 09:56:24;;;;;;;3.67;1.50;;;10.50;97.20;;;;;;6099403;23;20101;-83
2023/11/07 09:58:59;;;;;;;3.67;1.48;;;10.40;97.20;;;;;;6097591;23;20018;-85
2023/11/07 10:01:26;;;;;;;2.72;1.17;;;10.50;97.30;;;;;;6057175;23;20050;-86
2023/11/07 10:03:55;;;;;;;3.47;1.45;;;10.50;97.30;;;;;;6120803;23;20076;-84
2023/11/07 10:06:23;;;;;;;2.88;1.30;;;10.50;97.20;;;;;;6122121;23;20006;-85
2023/11/07 10:08:55;;;;;;;2.45;0.98;;;10.50;97.20;;;;;;6092414;23;20441;-84
2023/11/07 10:11:22;;;;;;;2.65;1.35;;;10.60;97.20;;;;;;6104941;23;20014;-83
2023/11/07 10:14:00;;;;;;;2.42;1.02;;;10.60;97.10;;;;;;6075340;23;20024;-87
2023/11/07 10:16:41;;;;;;;4.32;1.15;;;10.70;97.00;;;;;;6123283;23;20022;-85
2023/11/07 10:19:13;;;;;;;4.20;1.48;;;10.80;97.00;;;;;;6050002;23;20468;-82
2023/11/07 10:21:41;;;;;;;2.45;1.00;;;10.80;96.90;;;;;;6096741;23;20018;-82
2023/11/07 10:24:08;;;;;;;6.60;1.77;;;10.90;96.90;;;;;;6097588;23;20018;-85
2023/11/07 10:27:15;;;;;;;2.45;1.33;;;11.00;96.80;;;;;;6073734;23;20069;-88
2023/11/07 10:29:52;;;;;;;2.70;1.15;;;11.10;96.70;;;;;;6046646;23;20030;-85
2023/11/07 10:32:43;;;;;;;2.83;1.27;;;11.20;96.60;;;;;;6075113;23;20022;-85
2023/11/07 10:35:10;;;;;;;3.42;1.30;;;11.20;96.50;;;;;;6097043;23;20101;-87
2023/11/07 10:45:42;;;;;;;3.28;1.20;;;11.10;96.50;;;;;;5908364;23;20096;-90
2023/11/07 10:48:30;;;;;;;;;;;;;;;;;;;;;
2023/11/07 10:54:54;;;;;;;4.35;1.08;;;11.00;96.50;;;;;;5978140;23;20089;-91
2023/11/07 10:57:27;;;;;;;4.13;1.48;;;11.00;96.40;;;;;;5978830;23;20024;-92
2023/11/07 11:00:12;;;;;;;3.58;1.10;;;11.20;96.30;;;;;;5978845;23;20020;-95
2023/11/07 11:02:51;;;;;;;2.05;1.00;;;11.30;96.00;;;;;;5978390;23;20020;-88
2023/11/07 11:05:23;;;;;;;2.80;1.20;;;11.40;96.00;;;;;;6000887;23;20053;-88
2023/11/07 11:07:57;;;;;;;3.13;1.30;;;11.50;95.60;;;;;;5978319;23;20024;-93
2023/11/07 11:10:30;;;;;;;4.32;1.55;;;11.70;95.50;;;;;;5955117;24;20032;-90
2023/11/07 11:12:58;;;;;;;2.72;1.60;;;11.80;95.20;;;;;;6041143;23;20059;-89
2023/11/07 11:15:28;;;;;;;5.47;1.33;;;11.90;94.60;;;;;;6073846;23;20504;-88
2023/11/07 11:18:01;;;;;;;3.10;0.95;;;12.00;94.50;;;;;;6049924;23;20101;-87
2023/11/07 11:20:47;;;;;;;4.28;1.33;;;12.10;94.30;;;;;;6097477;23;20073;-88
2023/11/07 11:23:39;;;;;;;4.75;1.30;;;12.20;94.20;;;;;;6073482;23;20096;-87
2023/11/07 11:27:02;;;;;;;4.05;1.35;;;12.20;94.00;;;;;;6121704;23;20015;-87
2023/11/07 11:29:29;;;;;;;5.65;1.42;;;12.30;93.30;;;;;;6043785;23;20098;-85
2023/11/07 11:31:57;;;;;;;3.28;1.15;;;12.30;93.30;;;;;;6021054;23;20106;-88
2023/11/07 11:34:28;;;;;;;4.82;1.27;;;12.40;93.40;;;;;;6121191;23;20505;-86
2023/11/07 11:36:56;;;;;;;5.88;1.50;;;12.40;93.30;;;;;;6072468;23;20014;-86
2023/11/07 11:39:29;;;;;;;2.80;0.70;;;12.40;92.90;;;;;;6121060;23;20069;-84
2023/11/07 11:41:58;;;;;;;3.45;0.90;;;12.40;93.10;;;;;;6096603;23;20018;-87
2023/11/07 11:44:25;;;;;;;3.55;0.90;;;12.40;92.80;;;;;;6049813;23;20113;-86
2023/11/07 11:46:56;;;;;;;2.75;0.73;;;12.40;92.80;;;;;;6097499;23;20101;-86
2023/11/07 11:49:24;;;;;;;5.22;1.10;;;12.40;92.80;;;;;;6121588;23;20022;-86
2023/11/07 11:51:53;;;;;;;1.88;0.80;;;12.50;92.40;;;;;;6072159;23;20018;-86
2023/11/07 11:54:23;;;;;;;2.00;0.75;;;12.50;92.40;;;;;;6072750;23;20473;-84
2023/11/07 11:56:50;;;;;;;2.75;0.90;;;12.50;92.60;;;;;;6072545;23;20457;-85
2023/11/07 11:59:19;;;;;;;2.67;0.80;;;12.50;92.50;;;;;;6120837;23;20026;-85
2023/11/07 12:02:00;;;;;;;2.78;0.70;;;12.50;92.60;;;;;;6096737;23;20326;-83
2023/11/07 12:04:32;;;;;;;4.20;1.13;;;12.40;92.40;;;;;;6048286;23;20027;-82
2023/11/07 12:07:08;;;;;;;2.90;0.80;;;12.30;92.40;;;;;;6070836;23;20019;-82
2023/11/07 12:09:38;;;;;;;4.50;0.98;;;12.30;92.50;;;;;;6071826;23;20353;-82
2023/11/07 12:12:09;;;;;;;3.45;0.90;;;12.20;92.50;;;;;;6095326;23;20034;-82
2023/11/07 12:14:51;;;;;;;3.95;1.13;;;12.20;92.60;;;;;;6072130;23;20030;-84
2023/11/07 12:17:21;;;;;;;2.53;0.73;;;12.30;92.30;;;;;;6096288;23;20468;-85
2023/11/07 12:20:07;;;;;;;2.25;0.75;;;12.40;92.50;;;;;;6120963;23;20061;-85
2023/11/07 12:22:35;;;;;;;3.10;0.80;;;12.50;92.50;;;;;;6072419;23;20069;-83
2023/11/07 12:25:17;;;;;;;3.70;1.10;;;12.60;92.60;;;;;;6120750;23;20061;-84
2023/11/07 12:28:01;;;;;;;2.25;0.98;;;12.70;91.90;;;;;;6120368;23;20028;-84
2023/11/07 12:30:29;;;;;;;1.73;0.90;;;12.70;91.70;;;;;;6095498;23;20061;-83
2023/11/07 12:33:02;;;;;;;1.60;0.60;;;12.70;91.90;;;;;;6095938;23;20455;-83
2023/11/07 12:35:30;;;;;;;1.73;0.80;;;12.70;92.10;;;;;;6095749;23;20057;-85
2023/11/07 12:38:13;;;;;;;3.55;0.73;;;12.70;92.10;;;;;;6072105;23;20049;-85
2023/11/07 12:40:40;;;;;;;2.08;0.70;;;12.70;91.90;;;;;;6095868;23;20105;-83
2023/11/07 12:43:08;;;;;;;3.28;1.17;;;12.70;91.90;;;;;;6095816;23;20025;-84
2023/11/07 12:45:37;;;;;;;5.28;1.00;;;12.70;91.60;;;;;;6071854;23;20347;-86
2023/11/07 12:48:09;;;;;;;4.15;1.15;;;12.70;91.40;;;;;;6071851;23;20022;-84
2023/11/07 12:50:43;;;;;;;3.17;1.20;;;12.70;91.20;;;;;;6120396;23;20109;-84
2023/11/07 12:53:12;;;;;;;4.05;1.10;;;12.50;91.20;;;;;;6072173;23;20469;-84
2023/11/07 12:55:39;;;;;;;4.35;1.55;;;12.40;91.60;;;;;;6095710;23;20434;-84
2023/11/07 12:58:07;;;;;;;3.25;1.15;;;12.30;91.40;;;;;;6072012;23;20030;-85
2023/11/07 13:00:57;;;;;;;6.25;1.65;;;12.20;91.50;;;;;;6095525;23;20026;-85
2023/11/07 13:03:28;;;;;;;2.78;1.13;;;12.20;91.40;;;;;;6048645;23;20353;-83
2023/11/07 13:06:09;;;;;;;5.65;1.42;;;12.20;91.30;;;;;;6072292;23;20022;-83
2023/11/07 13:08:41;;;;;;;3.30;1.05;;;12.20;91.20;;;;;;6120189;23;20045;-85
2023/11/07 13:11:19;;;;;;;2.40;1.13;;;12.30;91.30;;;;;;6071274;23;20085;-83
2023/11/07 13:13:50;;;;;;;3.20;1.30;;;12.40;91.30;;;;;;6046786;23;20035;-91
2023/11/07 13:16:18;;;;;;;4.35;1.00;;;12.40;91.20;;;;;;6067417;23;20026;-88
2023/11/07 13:18:56;;;;;;;2.78;1.20;;;12.50;91.20;;;;;;6068126;23;20568;-86
2023/11/07 13:21:27;;;;;;;3.25;1.38;;;12.50;90.90;;;;;;6067654;23;20026;-88